createdAt,value
2023-02-03T00:00:16.611Z,75.51
2023-02-03T00:04:06.655Z,75.53
2023-02-03T00:07:32.336Z,75.54
2023-02-03T00:11:15.412Z,75.52
2023-02-03T00:15:07.932Z,75.45
2023-02-03T00:18:38.043Z,75.42
2023-02-03T00:22:24.914Z,75.47
2023-02-03T00:25:53.449Z,75.47
2023-02-03T00:29:22.879Z,75.50
2023-02-03T00:32:48.022Z,75.39
2023-02-03T00:36:26.960Z,75.39
2023-02-03T00:43:24.696Z,75.52
2023-02-03T00:46:58.440Z,75.45
2023-02-03T00:50:24.686Z,75.45
2023-02-03T00:53:37.317Z,75.47
2023-02-03T00:57:02.541Z,75.47
2023-02-03T01:00:24.526Z,75.33
2023-02-03T01:04:01.246Z,75.25
2023-02-03T01:07:28.201Z,75.21
2023-02-03T01:11:37.421Z,75.30
2023-02-03T01:15:14.230Z,75.49
2023-02-03T01:18:42.318Z,75.63
2023-02-03T01:22:04.040Z,75.62
2023-02-03T01:25:31.617Z,75.60
2023-02-03T01:28:45.677Z,75.53
2023-02-03T01:32:09.128Z,75.45
2023-02-03T01:35:29.050Z,75.50
2023-02-03T01:42:15.032Z,75.21
2023-02-03T01:45:35.161Z,75.14
2023-02-03T01:49:11.713Z,75.11
2023-02-03T01:52:28.450Z,75.05
2023-02-03T01:55:44.656Z,74.95
2023-02-03T01:59:00.928Z,74.95
2023-02-03T02:02:25.941Z,75.07
2023-02-03T02:06:09.099Z,75.18
2023-02-03T02:09:41.714Z,75.30
2023-02-03T02:12:36.848Z,75.30
2023-02-03T02:16:31.074Z,75.32
2023-02-03T02:24:44.530Z,75.43
2023-02-03T02:28:34.423Z,75.48
2023-02-03T02:32:23.656Z,75.49
2023-02-03T02:35:59.968Z,75.48
2023-02-03T02:39:51.325Z,75.51
2023-02-03T02:43:43.432Z,75.60
2023-02-03T02:47:29.429Z,75.64
2023-02-03T02:50:56.244Z,75.64
2023-02-03T02:54:19.493Z,75.66
2023-02-03T02:57:45.449Z,75.61
2023-02-03T03:04:58.769Z,75.41
2023-02-03T03:08:20.861Z,75.47
2023-02-03T03:12:06.686Z,75.59
2023-02-03T03:15:41.650Z,75.75
2023-02-03T03:19:42.361Z,75.70
2023-02-03T03:23:15.665Z,75.65
2023-02-03T03:26:41.007Z,75.56
2023-02-03T03:30:18.643Z,75.54
2023-02-03T03:33:38.465Z,75.55
2023-02-03T03:37:13.411Z,75.72
2023-02-03T03:48:43.586Z,75.58
2023-02-03T03:52:17.401Z,75.62
2023-02-03T03:56:01.257Z,75.66
2023-02-03T03:59:43.457Z,75.74
2023-02-03T04:02:49.010Z,75.80
2023-02-03T04:06:14.727Z,75.80
2023-02-03T04:09:38.204Z,75.74
2023-02-03T04:19:57.844Z,75.24
2023-02-03T04:34:05.481Z,74.75
2023-02-03T04:37:21.962Z,74.82
2023-02-03T04:40:57.071Z,74.92
2023-02-03T04:44:06.702Z,74.92
2023-02-03T04:47:44.919Z,75.06
2023-02-03T04:51:10.853Z,75.14
2023-02-03T04:54:36.785Z,75.21
2023-02-03T04:58:06.612Z,75.30
2023-02-03T05:04:57.756Z,75.21
2023-02-03T05:08:40.983Z,75.18
2023-02-03T05:12:17.721Z,75.18
2023-02-03T05:15:54.534Z,75.21
2023-02-03T05:19:28.663Z,75.38
2023-02-03T05:37:09.213Z,75.75
2023-02-03T05:40:56.003Z,75.79
2023-02-03T06:29:39.457Z,75.87
2023-02-03T06:32:57.206Z,75.88
2023-02-03T06:40:23.253Z,75.55
2023-02-03T06:43:45.055Z,75.31
2023-02-03T06:47:52.457Z,75.19
2023-02-03T06:51:27.628Z,75.04
2023-02-03T06:54:40.924Z,75.21
2023-02-03T06:58:12.135Z,75.44
2023-02-03T07:01:31.107Z,75.63
2023-02-03T07:09:01.827Z,75.64
2023-02-03T07:12:22.320Z,75.67
2023-02-03T07:15:48.151Z,75.62
2023-02-03T07:19:30.661Z,75.46
2023-02-03T07:26:34.736Z,75.32
2023-02-03T07:30:21.856Z,75.37
2023-02-03T07:34:04.265Z,75.34
2023-02-03T07:37:36.740Z,75.18
2023-02-03T07:41:03.883Z,75.23
2023-02-03T07:44:27.441Z,75.10
2023-02-03T07:47:56.229Z,74.94
2023-02-03T07:51:20.341Z,74.86
2023-02-03T07:55:08.718Z,74.81
2023-02-03T08:20:34.177Z,74.65
2023-02-03T08:23:58.561Z,74.53
2023-02-03T08:31:08.475Z,74.25
2023-02-03T08:35:32.349Z,74.15
2023-02-03T08:39:15.087Z,74.42
2023-02-03T08:42:40.265Z,74.66
2023-02-03T09:01:46.675Z,74.65
2023-02-03T09:04:57.251Z,74.61
2023-02-03T09:08:39.394Z,74.43
2023-02-03T09:12:33.948Z,74.42
2023-02-03T09:16:04.119Z,74.47
2023-02-03T09:19:52.860Z,74.42
2023-02-03T09:23:08.171Z,74.25
2023-02-03T09:26:38.016Z,74.34
2023-02-03T09:45:41.084Z,74.82
2023-02-03T10:01:08.732Z,74.62
2023-02-03T10:04:45.767Z,74.42
2023-02-03T10:08:55.123Z,74.60
2023-02-03T10:20:41.780Z,73.74
2023-02-03T10:28:04.536Z,73.83
2023-02-03T10:31:26.949Z,73.93
2023-02-03T10:34:49.873Z,74.21
2023-02-03T10:38:09.722Z,74.40
2023-02-03T10:41:23.703Z,74.33
2023-02-03T10:52:26.051Z,74.49
2023-02-03T10:55:51.659Z,74.48
2023-02-03T10:59:25.743Z,74.45
2023-02-03T11:02:48.406Z,74.32
2023-02-03T11:06:35.600Z,74.09
2023-02-03T11:17:56.426Z,74.30
2023-02-03T11:28:16.387Z,74.46
2023-02-03T11:32:41.191Z,74.46
2023-02-03T11:40:00.080Z,74.43
2023-02-03T11:43:53.301Z,74.18
2023-02-03T11:47:35.342Z,74.18
2023-02-03T11:51:04.237Z,74.29
2023-02-03T11:55:04.376Z,74.31
2023-02-03T12:05:58.721Z,74.35
2023-02-03T12:09:28.343Z,74.14
2023-02-03T12:13:02.061Z,73.83
2023-02-03T12:16:58.993Z,73.83
2023-02-03T12:20:52.244Z,73.53
2023-02-03T12:24:49.103Z,73.59
2023-02-03T12:28:46.781Z,73.74
2023-02-03T12:32:46.542Z,74.05
2023-02-03T12:36:36.810Z,74.03
2023-02-03T12:40:09.708Z,74.03
2023-02-03T12:44:17.239Z,73.88
2023-02-03T12:48:10.688Z,73.93
2023-02-03T12:52:02.929Z,74.12
2023-02-03T12:59:59.179Z,73.80
2023-02-03T13:03:55.615Z,73.84
2023-02-03T13:07:47.608Z,73.99
2023-02-03T13:14:53.646Z,74.00
2023-02-03T13:25:41.990Z,74.07
2023-02-03T13:38:39.769Z,74.37
2023-02-03T13:49:08.033Z,74.29
2023-02-03T13:52:26.218Z,74.30
2023-02-03T13:59:49.112Z,74.59
2023-02-03T14:03:39.426Z,74.67
2023-02-03T14:15:44.677Z,74.49
2023-02-03T14:19:16.411Z,74.53
2023-02-03T14:22:56.209Z,74.64
2023-02-03T14:26:15.192Z,74.68
2023-02-03T14:29:56.848Z,74.74
2023-02-03T14:33:26.529Z,74.74
2023-02-03T14:37:04.360Z,74.71
2023-02-03T14:40:37.546Z,74.65
2023-02-03T14:44:30.297Z,74.66
2023-02-03T14:52:01.604Z,75.00
2023-02-03T14:55:39.147Z,75.07
2023-02-03T14:59:11.991Z,75.13
2023-02-03T15:02:27.622Z,75.21
2023-02-03T15:05:51.614Z,75.26
2023-02-03T15:09:14.154Z,75.34
2023-02-03T15:13:08.110Z,75.48
2023-02-03T15:16:45.644Z,75.61
2023-02-03T15:27:38.039Z,76.07
2023-02-03T15:31:06.884Z,76.07
2023-02-03T15:35:06.590Z,75.98
2023-02-03T15:42:10.609Z,75.88
2023-02-03T15:45:44.314Z,75.72
2023-02-03T15:49:34.192Z,75.46
2023-02-03T15:52:41.819Z,75.26
2023-02-03T15:56:12.927Z,75.04
2023-02-03T16:03:32.911Z,75.13
2023-02-03T16:06:55.009Z,75.29
2023-02-03T16:10:42.184Z,75.18
2023-02-03T16:14:04.299Z,75.15
2023-02-03T16:35:25.485Z,75.12
2023-02-03T16:39:12.287Z,75.06
2023-02-03T16:42:54.245Z,75.13
2023-02-03T16:46:49.359Z,75.20
2023-02-03T16:50:37.262Z,75.24
2023-02-03T16:53:36.201Z,75.40
2023-02-03T16:57:11.239Z,75.45
2023-02-03T17:00:52.003Z,75.48
2023-02-03T17:04:17.857Z,75.54
2023-02-03T17:11:36.937Z,75.66
2023-02-03T17:14:58.473Z,75.56
2023-02-03T17:22:02.920Z,75.74
2023-02-03T17:25:26.717Z,75.77
2023-02-03T17:28:53.236Z,75.84
2023-02-03T17:36:42.973Z,75.87
2023-02-03T17:58:29.753Z,75.71
2023-02-03T18:01:55.513Z,75.58
2023-02-03T18:05:31.173Z,75.57
2023-02-03T18:09:01.219Z,75.80
2023-02-03T18:12:14.606Z,75.82
2023-02-03T18:15:37.481Z,75.93
2023-02-03T18:19:01.847Z,75.89
2023-02-03T18:22:31.173Z,75.58
2023-02-03T18:25:50.956Z,75.59
2023-02-03T18:29:30.785Z,75.62
2023-02-03T18:33:09.503Z,75.68
2023-02-03T18:36:46.085Z,75.72
2023-02-03T18:40:25.049Z,75.80
2023-02-03T18:43:45.154Z,75.89
2023-02-03T18:46:57.846Z,75.93
2023-02-03T18:50:29.861Z,75.98
2023-02-03T18:53:57.935Z,76.03
2023-02-03T19:00:43.847Z,76.02
2023-02-03T19:04:13.472Z,75.99
2023-02-03T19:07:29.643Z,75.97
2023-02-03T19:14:57.974Z,76.01
2023-02-03T19:18:27.780Z,76.04
2023-02-03T19:22:11.960Z,76.00
2023-02-03T19:25:31.640Z,76.07
2023-02-03T19:28:48.690Z,76.29
2023-02-03T19:32:30.698Z,76.49
2023-02-03T19:36:22.097Z,76.45
2023-02-03T19:53:53.818Z,76.92
2023-02-03T20:00:29.702Z,76.53
2023-02-03T20:03:55.334Z,76.39
2023-02-03T20:07:37.435Z,76.25
2023-02-03T20:11:04.263Z,76.18
2023-02-03T20:14:34.208Z,76.26
2023-02-03T20:17:53.156Z,76.22
2023-02-03T20:21:16.486Z,76.19
2023-02-03T20:24:34.822Z,76.08
2023-02-03T20:28:19.869Z,76.03
2023-02-03T20:31:42.900Z,76.01
2023-02-03T20:34:56.299Z,76.07
2023-02-03T20:42:02.782Z,75.90
2023-02-03T20:45:32.670Z,76.02
2023-02-03T20:48:53.338Z,76.03
2023-02-03T20:52:27.130Z,76.01
2023-02-03T20:55:56.971Z,75.97
2023-02-03T20:59:20.749Z,75.93
2023-02-03T21:03:08.547Z,75.95
2023-02-03T21:09:51.960Z,76.07
2023-02-03T21:13:09.753Z,76.08
2023-02-03T21:16:50.572Z,75.97
2023-02-03T21:20:19.681Z,75.91
2023-02-03T21:26:57.847Z,76.29
2023-02-03T21:30:31.759Z,76.27
2023-02-03T21:33:59.298Z,76.24
2023-02-03T21:37:41.432Z,76.25
2023-02-03T21:45:12.073Z,76.28
2023-02-03T21:48:52.855Z,76.16
2023-02-03T21:52:27.007Z,76.16
2023-02-03T21:56:05.809Z,76.09
2023-02-03T22:00:01.155Z,76.14
2023-02-03T22:03:53.294Z,76.26
2023-02-03T22:07:22.476Z,76.23
2023-02-03T22:10:52.603Z,76.21
2023-02-03T22:14:38.073Z,76.20
2023-02-03T22:17:58.925Z,76.21
2023-02-03T22:21:22.795Z,76.14
